sensor_id;sensor_type;location;lat;lon;timestamp;temperature;humidity
15930;DHT22;8064;51.142;4.780;2023-02-28T00:01:41;2.70;78.90
15930;DHT22;8064;51.142;4.780;2023-02-28T00:04:07;2.70;79.00
15930;DHT22;8064;51.142;4.780;2023-02-28T00:06:34;2.70;79.20
15930;DHT22;8064;51.142;4.780;2023-02-28T00:09:00;2.70;79.20
15930;DHT22;8064;51.142;4.780;2023-02-28T00:11:26;2.70;79.30
15930;DHT22;8064;51.142;4.780;2023-02-28T00:13:51;2.70;79.40
15930;DHT22;8064;51.142;4.780;2023-02-28T00:16:20;2.60;79.50
15930;DHT22;8064;51.142;4.780;2023-02-28T00:18:46;2.60;79.60
15930;DHT22;8064;51.142;4.780;2023-02-28T00:21:14;2.60;79.70
15930;DHT22;8064;51.142;4.780;2023-02-28T00:23:40;2.60;79.90
15930;DHT22;8064;51.142;4.780;2023-02-28T00:26:06;2.60;80.00
15930;DHT22;8064;51.142;4.780;2023-02-28T00:28:31;2.60;80.10
15930;DHT22;8064;51.142;4.780;2023-02-28T00:30:57;2.60;80.30
15930;DHT22;8064;51.142;4.780;2023-02-28T00:33:25;2.70;80.40
15930;DHT22;8064;51.142;4.780;2023-02-28T00:35:51;2.70;80.50
15930;DHT22;8064;51.142;4.780;2023-02-28T00:38:17;2.70;80.40
15930;DHT22;8064;51.142;4.780;2023-02-28T00:40:43;2.70;80.50
15930;DHT22;8064;51.142;4.780;2023-02-28T00:43:08;2.70;80.50
15930;DHT22;8064;51.142;4.780;2023-02-28T00:45:34;2.70;80.60
15930;DHT22;8064;51.142;4.780;2023-02-28T00:48:00;2.60;80.50
15930;DHT22;8064;51.142;4.780;2023-02-28T00:50:26;2.60;80.70
15930;DHT22;8064;51.142;4.780;2023-02-28T00:52:51;2.60;80.70
15930;DHT22;8064;51.142;4.780;2023-02-28T00:55:17;2.60;80.80
15930;DHT22;8064;51.142;4.780;2023-02-28T00:57:44;2.50;80.90
15930;DHT22;8064;51.142;4.780;2023-02-28T01:00:10;2.50;81.00
15930;DHT22;8064;51.142;4.780;2023-02-28T01:02:36;2.50;81.10
15930;DHT22;8064;51.142;4.780;2023-02-28T01:05:02;2.50;81.20
15930;DHT22;8064;51.142;4.780;2023-02-28T01:07:28;2.50;81.40
15930;DHT22;8064;51.142;4.780;2023-02-28T01:09:54;2.40;81.40
15930;DHT22;8064;51.142;4.780;2023-02-28T01:12:20;2.40;81.50
15930;DHT22;8064;51.142;4.780;2023-02-28T01:14:46;2.40;81.60
15930;DHT22;8064;51.142;4.780;2023-02-28T01:17:12;2.40;81.80
15930;DHT22;8064;51.142;4.780;2023-02-28T01:19:37;2.40;81.90
15930;DHT22;8064;51.142;4.780;2023-02-28T01:22:04;2.30;82.00
15930;DHT22;8064;51.142;4.780;2023-02-28T01:24:30;2.30;82.00
15930;DHT22;8064;51.142;4.780;2023-02-28T01:26:56;2.30;82.20
15930;DHT22;8064;51.142;4.780;2023-02-28T01:29:22;2.30;82.20
15930;DHT22;8064;51.142;4.780;2023-02-28T01:31:48;2.30;82.30
15930;DHT22;8064;51.142;4.780;2023-02-28T01:34:13;2.30;82.40
15930;DHT22;8064;51.142;4.780;2023-02-28T01:36:39;2.20;82.50
15930;DHT22;8064;51.142;4.780;2023-02-28T01:39:05;2.20;82.60
15930;DHT22;8064;51.142;4.780;2023-02-28T01:41:32;2.20;82.70
15930;DHT22;8064;51.142;4.780;2023-02-28T01:46:46;2.10;82.90
15930;DHT22;8064;51.142;4.780;2023-02-28T01:49:15;2.10;82.90
15930;DHT22;8064;51.142;4.780;2023-02-28T01:51:45;2.10;83.10
15930;DHT22;8064;51.142;4.780;2023-02-28T01:54:21;2.10;83.20
15930;DHT22;8064;51.142;4.780;2023-02-28T01:56:53;2.00;83.30
15930;DHT22;8064;51.142;4.780;2023-02-28T01:59:25;2.00;83.50
15930;DHT22;8064;51.142;4.780;2023-02-28T02:01:53;2.00;83.60
15930;DHT22;8064;51.142;4.780;2023-02-28T02:04:19;2.00;83.70
15930;DHT22;8064;51.142;4.780;2023-02-28T02:06:47;2.00;84.50
15930;DHT22;8064;51.142;4.780;2023-02-28T02:09:13;1.90;83.90
15930;DHT22;8064;51.142;4.780;2023-02-28T02:11:41;1.90;84.00
15930;DHT22;8064;51.142;4.780;2023-02-28T02:17:04;1.90;84.50
15930;DHT22;8064;51.142;4.780;2023-02-28T02:30:40;1.80;84.80
15930;DHT22;8064;51.142;4.780;2023-02-28T02:38:42;1.80;84.90
15930;DHT22;8064;51.142;4.780;2023-02-28T02:46:43;1.70;85.20
15930;DHT22;8064;51.142;4.780;2023-02-28T02:49:15;1.70;85.30
15930;DHT22;8064;51.142;4.780;2023-02-28T02:51:43;1.70;85.50
15930;DHT22;8064;51.142;4.780;2023-02-28T02:54:24;1.60;85.50
15930;DHT22;8064;51.142;4.780;2023-02-28T02:56:57;1.70;85.90
15930;DHT22;8064;51.142;4.780;2023-02-28T02:59:24;1.60;85.80
15930;DHT22;8064;51.142;4.780;2023-02-28T03:01:55;1.60;85.90
15930;DHT22;8064;51.142;4.780;2023-02-28T03:04:25;1.60;86.10
15930;DHT22;8064;51.142;4.780;2023-02-28T03:06:52;1.60;86.20
15930;DHT22;8064;51.142;4.780;2023-02-28T03:09:22;1.60;86.20
15930;DHT22;8064;51.142;4.780;2023-02-28T03:11:49;1.60;86.40
15930;DHT22;8064;51.142;4.780;2023-02-28T03:14:39;1.60;86.50
15930;DHT22;8064;51.142;4.780;2023-02-28T03:31:07;1.50;87.00
15930;DHT22;8064;51.142;4.780;2023-02-28T03:33:41;1.50;87.10
15930;DHT22;8064;51.142;4.780;2023-02-28T03:36:09;1.50;87.30
15930;DHT22;8064;51.142;4.780;2023-02-28T03:38:40;1.50;87.50
15930;DHT22;8064;51.142;4.780;2023-02-28T03:41:13;1.50;87.60
15930;DHT22;8064;51.142;4.780;2023-02-28T03:43:43;1.50;87.70
15930;DHT22;8064;51.142;4.780;2023-02-28T03:46:13;1.50;87.70
15930;DHT22;8064;51.142;4.780;2023-02-28T03:48:41;1.50;87.70
15930;DHT22;8064;51.142;4.780;2023-02-28T03:51:10;1.40;87.70
15930;DHT22;8064;51.142;4.780;2023-02-28T03:53:42;1.40;87.90
15930;DHT22;8064;51.142;4.780;2023-02-28T03:56:31;1.40;88.80
15930;DHT22;8064;51.142;4.780;2023-02-28T04:02:01;1.40;88.30
15930;DHT22;8064;51.142;4.780;2023-02-28T04:04:28;1.40;88.10
15930;DHT22;8064;51.142;4.780;2023-02-28T04:07:02;1.40;88.30
15930;DHT22;8064;51.142;4.780;2023-02-28T04:09:28;1.40;88.50
15930;DHT22;8064;51.142;4.780;2023-02-28T04:11:54;1.40;88.50
15930;DHT22;8064;51.142;4.780;2023-02-28T04:14:22;1.40;88.50
15930;DHT22;8064;51.142;4.780;2023-02-28T04:16:48;1.40;88.60
15930;DHT22;8064;51.142;4.780;2023-02-28T04:19:14;1.40;88.60
15930;DHT22;8064;51.142;4.780;2023-02-28T04:21:42;1.40;88.70
15930;DHT22;8064;51.142;4.780;2023-02-28T04:24:12;1.40;88.80
15930;DHT22;8064;51.142;4.780;2023-02-28T04:26:41;1.40;88.90
15930;DHT22;8064;51.142;4.780;2023-02-28T04:29:10;1.40;89.00
15930;DHT22;8064;51.142;4.780;2023-02-28T04:31:36;1.50;89.20
15930;DHT22;8064;51.142;4.780;2023-02-28T04:34:02;1.50;89.30
15930;DHT22;8064;51.142;4.780;2023-02-28T04:36:28;1.50;89.40
15930;DHT22;8064;51.142;4.780;2023-02-28T04:38:54;1.50;89.50
15930;DHT22;8064;51.142;4.780;2023-02-28T04:41:21;1.60;89.60
15930;DHT22;8064;51.142;4.780;2023-02-28T04:43:48;1.60;89.70
15930;DHT22;8064;51.142;4.780;2023-02-28T04:46:14;1.60;89.70
15930;DHT22;8064;51.142;4.780;2023-02-28T04:48:41;1.70;89.80
15930;DHT22;8064;51.142;4.780;2023-02-28T04:51:09;1.70;89.90
15930;DHT22;8064;51.142;4.780;2023-02-28T04:53:37;1.80;90.00
15930;DHT22;8064;51.142;4.780;2023-02-28T04:56:03;1.80;90.00
15930;DHT22;8064;51.142;4.780;2023-02-28T04:58:29;1.90;90.00
15930;DHT22;8064;51.142;4.780;2023-02-28T05:01:02;1.90;90.00
15930;DHT22;8064;51.142;4.780;2023-02-28T05:03:28;2.00;90.10
15930;DHT22;8064;51.142;4.780;2023-02-28T05:05:54;2.00;90.00
15930;DHT22;8064;51.142;4.780;2023-02-28T05:08:19;2.00;90.00
15930;DHT22;8064;51.142;4.780;2023-02-28T05:10:45;2.10;90.10
15930;DHT22;8064;51.142;4.780;2023-02-28T05:13:12;2.10;90.10
15930;DHT22;8064;51.142;4.780;2023-02-28T05:15:38;2.10;90.10
15930;DHT22;8064;51.142;4.780;2023-02-28T05:18:04;2.20;90.10
15930;DHT22;8064;51.142;4.780;2023-02-28T05:20:29;2.20;90.10
15930;DHT22;8064;51.142;4.780;2023-02-28T05:22:57;2.20;90.10
15930;DHT22;8064;51.142;4.780;2023-02-28T05:25:23;2.20;90.10
15930;DHT22;8064;51.142;4.780;2023-02-28T05:27:49;2.20;90.10
15930;DHT22;8064;51.142;4.780;2023-02-28T05:30:15;2.20;90.10
15930;DHT22;8064;51.142;4.780;2023-02-28T05:32:41;2.20;90.10
15930;DHT22;8064;51.142;4.780;2023-02-28T05:35:10;2.20;90.10
15930;DHT22;8064;51.142;4.780;2023-02-28T05:37:37;2.20;90.10
15930;DHT22;8064;51.142;4.780;2023-02-28T05:40:04;2.20;90.10
15930;DHT22;8064;51.142;4.780;2023-02-28T05:42:32;2.20;90.10
15930;DHT22;8064;51.142;4.780;2023-02-28T05:44:57;2.30;90.20
15930;DHT22;8064;51.142;4.780;2023-02-28T05:47:23;2.30;90.20
15930;DHT22;8064;51.142;4.780;2023-02-28T05:49:49;2.30;90.30
15930;DHT22;8064;51.142;4.780;2023-02-28T05:52:15;2.30;90.30
15930;DHT22;8064;51.142;4.780;2023-02-28T05:54:41;2.30;90.30
15930;DHT22;8064;51.142;4.780;2023-02-28T05:57:06;2.30;90.60
15930;DHT22;8064;51.142;4.780;2023-02-28T05:59:32;2.30;90.30
15930;DHT22;8064;51.142;4.780;2023-02-28T06:01:58;2.30;90.40
15930;DHT22;8064;51.142;4.780;2023-02-28T06:04:24;2.30;90.40
15930;DHT22;8064;51.142;4.780;2023-02-28T06:06:50;2.30;90.40
15930;DHT22;8064;51.142;4.780;2023-02-28T06:09:17;2.30;90.40
15930;DHT22;8064;51.142;4.780;2023-02-28T06:11:43;2.30;90.40
15930;DHT22;8064;51.142;4.780;2023-02-28T06:14:28;2.40;90.40
15930;DHT22;8064;51.142;4.780;2023-02-28T06:16:53;2.30;90.50
15930;DHT22;8064;51.142;4.780;2023-02-28T06:19:19;2.40;90.40
15930;DHT22;8064;51.142;4.780;2023-02-28T06:21:49;2.40;90.40
15930;DHT22;8064;51.142;4.780;2023-02-28T06:24:16;2.40;90.50
15930;DHT22;8064;51.142;4.780;2023-02-28T06:26:41;2.40;90.50
15930;DHT22;8064;51.142;4.780;2023-02-28T06:29:07;2.40;90.50
15930;DHT22;8064;51.142;4.780;2023-02-28T06:31:34;2.40;90.50
15930;DHT22;8064;51.142;4.780;2023-02-28T06:33:59;2.50;90.60
15930;DHT22;8064;51.142;4.780;2023-02-28T06:36:25;2.50;90.60
15930;DHT22;8064;51.142;4.780;2023-02-28T06:38:51;2.50;90.50
15930;DHT22;8064;51.142;4.780;2023-02-28T06:41:22;2.60;90.60
15930;DHT22;8064;51.142;4.780;2023-02-28T06:43:47;2.60;90.60
15930;DHT22;8064;51.142;4.780;2023-02-28T06:46:14;2.60;90.50
15930;DHT22;8064;51.142;4.780;2023-02-28T06:48:40;2.70;90.50
15930;DHT22;8064;51.142;4.780;2023-02-28T06:51:08;2.70;90.50
15930;DHT22;8064;51.142;4.780;2023-02-28T06:53:35;2.70;90.50
15930;DHT22;8064;51.142;4.780;2023-02-28T06:56:17;2.80;90.50
15930;DHT22;8064;51.142;4.780;2023-02-28T06:58:47;2.90;90.60
15930;DHT22;8064;51.142;4.780;2023-02-28T07:01:14;2.90;90.50
15930;DHT22;8064;51.142;4.780;2023-02-28T07:03:40;3.00;90.50
15930;DHT22;8064;51.142;4.780;2023-02-28T07:06:06;3.10;90.50
15930;DHT22;8064;51.142;4.780;2023-02-28T07:08:33;3.20;90.50
15930;DHT22;8064;51.142;4.780;2023-02-28T07:10:59;3.20;90.50
15930;DHT22;8064;51.142;4.780;2023-02-28T07:13:25;3.20;90.40
15930;DHT22;8064;51.142;4.780;2023-02-28T07:16:05;3.30;90.30
15930;DHT22;8064;51.142;4.780;2023-02-28T07:18:31;3.40;90.40
15930;DHT22;8064;51.142;4.780;2023-02-28T07:20:57;3.40;90.30
15930;DHT22;8064;51.142;4.780;2023-02-28T07:23:23;3.40;90.20
15930;DHT22;8064;51.142;4.780;2023-02-28T07:25:50;3.50;90.20
15930;DHT22;8064;51.142;4.780;2023-02-28T07:28:16;3.60;90.20
15930;DHT22;8064;51.142;4.780;2023-02-28T07:30:42;3.80;90.20
15930;DHT22;8064;51.142;4.780;2023-02-28T07:33:09;4.00;90.10
15930;DHT22;8064;51.142;4.780;2023-02-28T07:35:34;4.20;90.00
15930;DHT22;8064;51.142;4.780;2023-02-28T07:38:00;4.40;89.80
15930;DHT22;8064;51.142;4.780;2023-02-28T07:40:27;4.60;89.50
15930;DHT22;8064;51.142;4.780;2023-02-28T07:42:52;4.80;89.20
15930;DHT22;8064;51.142;4.780;2023-02-28T07:45:19;5.00;88.80
15930;DHT22;8064;51.142;4.780;2023-02-28T07:47:45;5.20;88.30
15930;DHT22;8064;51.142;4.780;2023-02-28T07:50:12;5.30;87.70
15930;DHT22;8064;51.142;4.780;2023-02-28T07:52:39;5.50;87.40
15930;DHT22;8064;51.142;4.780;2023-02-28T07:55:07;5.70;87.10
15930;DHT22;8064;51.142;4.780;2023-02-28T07:57:33;5.90;86.70
15930;DHT22;8064;51.142;4.780;2023-02-28T07:59:59;6.10;86.10
15930;DHT22;8064;51.142;4.780;2023-02-28T08:02:25;6.30;85.50
15930;DHT22;8064;51.142;4.780;2023-02-28T08:04:51;6.40;85.20
15930;DHT22;8064;51.142;4.780;2023-02-28T08:07:17;6.50;84.90
15930;DHT22;8064;51.142;4.780;2023-02-28T08:09:45;6.60;84.30
15930;DHT22;8064;51.142;4.780;2023-02-28T08:12:11;6.70;83.60
15930;DHT22;8064;51.142;4.780;2023-02-28T08:14:37;6.90;83.10
15930;DHT22;8064;51.142;4.780;2023-02-28T08:17:03;7.10;82.50
15930;DHT22;8064;51.142;4.780;2023-02-28T08:19:29;7.20;81.70
15930;DHT22;8064;51.142;4.780;2023-02-28T08:21:56;7.30;81.00
15930;DHT22;8064;51.142;4.780;2023-02-28T08:24:22;7.50;80.40
15930;DHT22;8064;51.142;4.780;2023-02-28T08:26:48;7.60;80.00
15930;DHT22;8064;51.142;4.780;2023-02-28T08:29:13;7.70;79.20
15930;DHT22;8064;51.142;4.780;2023-02-28T08:31:39;7.80;78.80
15930;DHT22;8064;51.142;4.780;2023-02-28T08:34:07;7.80;78.50
15930;DHT22;8064;51.142;4.780;2023-02-28T08:36:33;7.90;77.90
15930;DHT22;8064;51.142;4.780;2023-02-28T08:38:58;8.00;77.80
15930;DHT22;8064;51.142;4.780;2023-02-28T08:41:25;8.00;76.80
15930;DHT22;8064;51.142;4.780;2023-02-28T08:43:51;8.10;76.50
15930;DHT22;8064;51.142;4.780;2023-02-28T08:46:17;8.20;76.00
15930;DHT22;8064;51.142;4.780;2023-02-28T08:48:43;8.30;75.60
15930;DHT22;8064;51.142;4.780;2023-02-28T08:51:12;8.50;75.10
15930;DHT22;8064;51.142;4.780;2023-02-28T08:53:39;8.60;73.90
15930;DHT22;8064;51.142;4.780;2023-02-28T08:56:09;8.70;73.20
15930;DHT22;8064;51.142;4.780;2023-02-28T08:58:35;8.70;72.80
15930;DHT22;8064;51.142;4.780;2023-02-28T09:03:49;8.80;70.80
15930;DHT22;8064;51.142;4.780;2023-02-28T09:06:17;8.90;70.40
15930;DHT22;8064;51.142;4.780;2023-02-28T09:08:43;8.90;69.80
15930;DHT22;8064;51.142;4.780;2023-02-28T09:11:09;9.00;69.00
15930;DHT22;8064;51.142;4.780;2023-02-28T09:13:36;9.10;68.80
15930;DHT22;8064;51.142;4.780;2023-02-28T09:16:03;9.20;68.80
15930;DHT22;8064;51.142;4.780;2023-02-28T09:18:29;9.30;68.10
15930;DHT22;8064;51.142;4.780;2023-02-28T09:20:56;9.40;66.60
15930;DHT22;8064;51.142;4.780;2023-02-28T09:23:23;9.50;65.90
15930;DHT22;8064;51.142;4.780;2023-02-28T09:25:59;9.50;65.00
15930;DHT22;8064;51.142;4.780;2023-02-28T09:28:25;9.60;64.40
15930;DHT22;8064;51.142;4.780;2023-02-28T09:30:53;9.70;64.20
15930;DHT22;8064;51.142;4.780;2023-02-28T09:33:20;9.70;63.70
15930;DHT22;8064;51.142;4.780;2023-02-28T09:35:47;9.80;63.20
15930;DHT22;8064;51.142;4.780;2023-02-28T09:38:13;9.80;62.70
15930;DHT22;8064;51.142;4.780;2023-02-28T09:40:58;9.90;62.00
15930;DHT22;8064;51.142;4.780;2023-02-28T09:43:28;10.30;60.10
15930;DHT22;8064;51.142;4.780;2023-02-28T09:46:17;11.10;58.70
15930;DHT22;8064;51.142;4.780;2023-02-28T09:48:48;12.50;55.50
15930;DHT22;8064;51.142;4.780;2023-02-28T09:51:46;14.60;51.10
15930;DHT22;8064;51.142;4.780;2023-02-28T09:54:19;17.50;45.50
15930;DHT22;8064;51.142;4.780;2023-02-28T09:57:02;20.00;42.70
15930;DHT22;8064;51.142;4.780;2023-02-28T10:08:19;26.30;33.30
15930;DHT22;8064;51.142;4.780;2023-02-28T10:11:06;27.10;31.40
15930;DHT22;8064;51.142;4.780;2023-02-28T10:13:54;27.90;31.40
15930;DHT22;8064;51.142;4.780;2023-02-28T10:16:33;28.80;30.30
15930;DHT22;8064;51.142;4.780;2023-02-28T10:19:31;29.70;30.70
15930;DHT22;8064;51.142;4.780;2023-02-28T10:22:22;30.60;28.40
15930;DHT22;8064;51.142;4.780;2023-02-28T10:24:53;31.50;27.80
15930;DHT22;8064;51.142;4.780;2023-02-28T10:27:25;32.10;27.80
15930;DHT22;8064;51.142;4.780;2023-02-28T10:29:54;32.60;26.90
15930;DHT22;8064;51.142;4.780;2023-02-28T10:32:24;33.10;26.80
15930;DHT22;8064;51.142;4.780;2023-02-28T10:35:09;33.70;26.40
15930;DHT22;8064;51.142;4.780;2023-02-28T10:37:38;34.20;25.80
15930;DHT22;8064;51.142;4.780;2023-02-28T10:40:06;34.80;25.80
15930;DHT22;8064;51.142;4.780;2023-02-28T10:42:39;35.30;25.00
15930;DHT22;8064;51.142;4.780;2023-02-28T10:45:22;35.80;24.90
15930;DHT22;8064;51.142;4.780;2023-02-28T10:50:53;36.60;23.10
15930;DHT22;8064;51.142;4.780;2023-02-28T10:56:02;36.40;23.30
15930;DHT22;8064;51.142;4.780;2023-02-28T10:58:31;36.30;22.70
15930;DHT22;8064;51.142;4.780;2023-02-28T11:01:15;36.40;23.00
15930;DHT22;8064;51.142;4.780;2023-02-28T11:03:41;36.50;22.40
15930;DHT22;8064;51.142;4.780;2023-02-28T11:06:29;36.50;22.60
15930;DHT22;8064;51.142;4.780;2023-02-28T11:08:58;36.30;22.50
15930;DHT22;8064;51.142;4.780;2023-02-28T11:11:27;36.20;22.20
15930;DHT22;8064;51.142;4.780;2023-02-28T11:13:56;36.00;22.40
15930;DHT22;8064;51.142;4.780;2023-02-28T11:16:32;35.90;22.40
15930;DHT22;8064;51.142;4.780;2023-02-28T11:18:59;35.90;22.30
15930;DHT22;8064;51.142;4.780;2023-02-28T11:21:29;36.10;22.80
15930;DHT22;8064;51.142;4.780;2023-02-28T11:24:02;36.20;22.30
15930;DHT22;8064;51.142;4.780;2023-02-28T11:26:45;36.00;21.90
15930;DHT22;8064;51.142;4.780;2023-02-28T11:34:43;34.50;22.10
15930;DHT22;8064;51.142;4.780;2023-02-28T11:37:14;33.80;22.80
15930;DHT22;8064;51.142;4.780;2023-02-28T11:39:41;32.70;22.80
15930;DHT22;8064;51.142;4.780;2023-02-28T11:48:00;28.30;24.40
15930;DHT22;8064;51.142;4.780;2023-02-28T11:56:41;23.40;27.10
15930;DHT22;8064;51.142;4.780;2023-02-28T12:08:12;18.50;29.80
15930;DHT22;8064;51.142;4.780;2023-02-28T12:10:57;17.50;30.20
15930;DHT22;8064;51.142;4.780;2023-02-28T12:14:03;16.50;31.00
15930;DHT22;8064;51.142;4.780;2023-02-28T12:16:43;15.70;31.30
15930;DHT22;8064;51.142;4.780;2023-02-28T12:22:22;14.60;32.50
15930;DHT22;8064;51.142;4.780;2023-02-28T12:24:54;14.00;32.80
15930;DHT22;8064;51.142;4.780;2023-02-28T12:27:29;13.60;33.20
15930;DHT22;8064;51.142;4.780;2023-02-28T12:33:16;12.90;34.00
15930;DHT22;8064;51.142;4.780;2023-02-28T12:35:56;12.60;34.40
15930;DHT22;8064;51.142;4.780;2023-02-28T12:38:26;12.40;34.70
15930;DHT22;8064;51.142;4.780;2023-02-28T12:40:59;12.30;34.90
15930;DHT22;8064;51.142;4.780;2023-02-28T12:43:32;12.20;35.10
15930;DHT22;8064;51.142;4.780;2023-02-28T12:46:03;12.10;35.60
15930;DHT22;8064;51.142;4.780;2023-02-28T12:48:39;11.90;35.90
15930;DHT22;8064;51.142;4.780;2023-02-28T12:51:06;11.80;36.00
15930;DHT22;8064;51.142;4.780;2023-02-28T12:56:29;11.60;36.60
15930;DHT22;8064;51.142;4.780;2023-02-28T12:59:02;11.50;37.40
15930;DHT22;8064;51.142;4.780;2023-02-28T13:01:41;11.50;36.90
15930;DHT22;8064;51.142;4.780;2023-02-28T13:07:10;11.40;37.40
15930;DHT22;8064;51.142;4.780;2023-02-28T13:09:39;11.20;37.60
15930;DHT22;8064;51.142;4.780;2023-02-28T13:12:14;11.00;37.90
15930;DHT22;8064;51.142;4.780;2023-02-28T13:14:41;10.80;38.20
15930;DHT22;8064;51.142;4.780;2023-02-28T13:27:35;10.40;39.30
15930;DHT22;8064;51.142;4.780;2023-02-28T13:33:22;10.50;39.90
15930;DHT22;8064;51.142;4.780;2023-02-28T13:39:03;10.30;40.30
15930;DHT22;8064;51.142;4.780;2023-02-28T13:41:44;10.20;40.70
15930;DHT22;8064;51.142;4.780;2023-02-28T13:51:52;10.20;40.70
15930;DHT22;8064;51.142;4.780;2023-02-28T13:54:39;10.20;40.90
15930;DHT22;8064;51.142;4.780;2023-02-28T13:57:12;10.10;41.30
15930;DHT22;8064;51.142;4.780;2023-02-28T14:02:43;10.10;41.30
15930;DHT22;8064;51.142;4.780;2023-02-28T14:05:15;10.20;41.40
15930;DHT22;8064;51.142;4.780;2023-02-28T14:07:47;10.20;41.60
15930;DHT22;8064;51.142;4.780;2023-02-28T14:16:07;10.20;42.30
15930;DHT22;8064;51.142;4.780;2023-02-28T14:18:35;10.20;42.20
15930;DHT22;8064;51.142;4.780;2023-02-28T14:21:11;10.10;42.20
15930;DHT22;8064;51.142;4.780;2023-02-28T14:38:14;10.10;42.70
15930;DHT22;8064;51.142;4.780;2023-02-28T14:40:42;10.10;42.80
15930;DHT22;8064;51.142;4.780;2023-02-28T14:43:26;10.10;42.70
15930;DHT22;8064;51.142;4.780;2023-02-28T14:45:55;10.00;42.70
15930;DHT22;8064;51.142;4.780;2023-02-28T14:48:23;10.00;42.50
15930;DHT22;8064;51.142;4.780;2023-02-28T14:50:54;9.90;43.60
15930;DHT22;8064;51.142;4.780;2023-02-28T14:53:23;9.90;43.80
15930;DHT22;8064;51.142;4.780;2023-02-28T14:55:51;9.80;44.00
15930;DHT22;8064;51.142;4.780;2023-02-28T14:58:30;9.80;44.10
15930;DHT22;8064;51.142;4.780;2023-02-28T15:00:59;9.70;44.20
15930;DHT22;8064;51.142;4.780;2023-02-28T15:03:40;9.70;44.40
15930;DHT22;8064;51.142;4.780;2023-02-28T15:06:15;9.70;44.70
15930;DHT22;8064;51.142;4.780;2023-02-28T15:08:43;9.70;44.70
15930;DHT22;8064;51.142;4.780;2023-02-28T15:11:14;9.70;44.80
15930;DHT22;8064;51.142;4.780;2023-02-28T15:13:45;9.70;45.00
15930;DHT22;8064;51.142;4.780;2023-02-28T15:19:00;9.70;44.90
15930;DHT22;8064;51.142;4.780;2023-02-28T15:21:31;9.60;45.00
15930;DHT22;8064;51.142;4.780;2023-02-28T15:24:16;9.50;44.90
15930;DHT22;8064;51.142;4.780;2023-02-28T15:27:04;9.50;45.10
15930;DHT22;8064;51.142;4.780;2023-02-28T15:29:41;9.40;45.20
15930;DHT22;8064;51.142;4.780;2023-02-28T15:41:21;9.20;45.90
15930;DHT22;8064;51.142;4.780;2023-02-28T15:43:47;9.10;46.10
15930;DHT22;8064;51.142;4.780;2023-02-28T15:46:13;9.10;46.20
15930;DHT22;8064;51.142;4.780;2023-02-28T15:48:54;9.10;47.00
15930;DHT22;8064;51.142;4.780;2023-02-28T15:51:24;9.10;46.20
15930;DHT22;8064;51.142;4.780;2023-02-28T15:56:57;9.00;46.30
15930;DHT22;8064;51.142;4.780;2023-02-28T15:59:26;8.90;46.40
15930;DHT22;8064;51.142;4.780;2023-02-28T16:05:00;8.70;46.80
15930;DHT22;8064;51.142;4.780;2023-02-28T16:07:28;8.60;46.90
15930;DHT22;8064;51.142;4.780;2023-02-28T16:09:55;8.50;47.00
15930;DHT22;8064;51.142;4.780;2023-02-28T16:12:25;8.40;47.20
15930;DHT22;8064;51.142;4.780;2023-02-28T16:14:52;8.40;47.50
15930;DHT22;8064;51.142;4.780;2023-02-28T16:17:23;8.30;47.50
15930;DHT22;8064;51.142;4.780;2023-02-28T16:19:49;8.20;47.50
15930;DHT22;8064;51.142;4.780;2023-02-28T16:22:16;8.20;47.70
15930;DHT22;8064;51.142;4.780;2023-02-28T16:24:41;8.20;48.00
15930;DHT22;8064;51.142;4.780;2023-02-28T16:27:17;8.10;48.10
15930;DHT22;8064;51.142;4.780;2023-02-28T16:29:43;8.00;48.10
15930;DHT22;8064;51.142;4.780;2023-02-28T16:32:13;8.00;48.10
15930;DHT22;8064;51.142;4.780;2023-02-28T16:34:39;8.00;48.30
15930;DHT22;8064;51.142;4.780;2023-02-28T16:37:12;7.90;48.20
15930;DHT22;8064;51.142;4.780;2023-02-28T16:39:38;7.90;48.40
15930;DHT22;8064;51.142;4.780;2023-02-28T16:42:04;7.90;48.50
15930;DHT22;8064;51.142;4.780;2023-02-28T16:44:33;7.80;48.50
15930;DHT22;8064;51.142;4.780;2023-02-28T16:47:00;7.80;48.60
15930;DHT22;8064;51.142;4.780;2023-02-28T16:49:26;7.80;48.80
15930;DHT22;8064;51.142;4.780;2023-02-28T16:51:52;7.70;48.80
15930;DHT22;8064;51.142;4.780;2023-02-28T16:54:18;7.70;49.00
15930;DHT22;8064;51.142;4.780;2023-02-28T16:56:45;7.60;49.10
15930;DHT22;8064;51.142;4.780;2023-02-28T16:59:12;7.60;49.10
15930;DHT22;8064;51.142;4.780;2023-02-28T17:01:38;7.60;49.20
15930;DHT22;8064;51.142;4.780;2023-02-28T17:04:05;7.50;49.20
15930;DHT22;8064;51.142;4.780;2023-02-28T17:06:31;7.50;49.50
15930;DHT22;8064;51.142;4.780;2023-02-28T17:08:59;7.40;49.50
15930;DHT22;8064;51.142;4.780;2023-02-28T17:11:26;7.40;49.80
15930;DHT22;8064;51.142;4.780;2023-02-28T17:13:52;7.30;49.80
15930;DHT22;8064;51.142;4.780;2023-02-28T17:16:25;7.30;50.00
15930;DHT22;8064;51.142;4.780;2023-02-28T17:18:53;7.20;50.10
15930;DHT22;8064;51.142;4.780;2023-02-28T17:21:19;7.20;50.20
15930;DHT22;8064;51.142;4.780;2023-02-28T17:23:45;7.10;50.30
15930;DHT22;8064;51.142;4.780;2023-02-28T17:26:15;7.10;50.40
15930;DHT22;8064;51.142;4.780;2023-02-28T17:28:41;7.00;50.50
15930;DHT22;8064;51.142;4.780;2023-02-28T17:31:08;7.00;50.70
15930;DHT22;8064;51.142;4.780;2023-02-28T17:33:33;6.90;50.80
15930;DHT22;8064;51.142;4.780;2023-02-28T17:35:59;6.90;50.90
15930;DHT22;8064;51.142;4.780;2023-02-28T17:38:25;6.80;51.00
15930;DHT22;8064;51.142;4.780;2023-02-28T17:40:51;6.80;51.20
15930;DHT22;8064;51.142;4.780;2023-02-28T17:43:23;6.70;51.20
15930;DHT22;8064;51.142;4.780;2023-02-28T17:45:49;6.60;51.30
15930;DHT22;8064;51.142;4.780;2023-02-28T17:48:14;6.60;51.40
15930;DHT22;8064;51.142;4.780;2023-02-28T17:50:40;6.50;51.50
15930;DHT22;8064;51.142;4.780;2023-02-28T17:53:06;6.50;51.70
15930;DHT22;8064;51.142;4.780;2023-02-28T17:55:32;6.40;51.70
15930;DHT22;8064;51.142;4.780;2023-02-28T17:58:00;6.40;52.20
15930;DHT22;8064;51.142;4.780;2023-02-28T18:00:26;6.30;52.00
15930;DHT22;8064;51.142;4.780;2023-02-28T18:02:51;6.30;52.20
15930;DHT22;8064;51.142;4.780;2023-02-28T18:05:17;6.30;52.30
15930;DHT22;8064;51.142;4.780;2023-02-28T18:07:43;6.20;52.50
15930;DHT22;8064;51.142;4.780;2023-02-28T18:10:14;6.20;52.70
15930;DHT22;8064;51.142;4.780;2023-02-28T18:12:41;6.10;52.80
15930;DHT22;8064;51.142;4.780;2023-02-28T18:15:07;6.00;52.80
15930;DHT22;8064;51.142;4.780;2023-02-28T18:17:33;6.00;53.00
15930;DHT22;8064;51.142;4.780;2023-02-28T18:19:59;5.90;53.00
15930;DHT22;8064;51.142;4.780;2023-02-28T18:22:24;5.90;53.20
15930;DHT22;8064;51.142;4.780;2023-02-28T18:24:50;5.80;53.30
15930;DHT22;8064;51.142;4.780;2023-02-28T18:27:16;5.80;53.50
15930;DHT22;8064;51.142;4.780;2023-02-28T18:29:42;5.70;54.30
15930;DHT22;8064;51.142;4.780;2023-02-28T18:32:08;5.70;53.80
15930;DHT22;8064;51.142;4.780;2023-02-28T18:34:34;5.60;53.80
15930;DHT22;8064;51.142;4.780;2023-02-28T18:37:00;5.60;54.00
15930;DHT22;8064;51.142;4.780;2023-02-28T18:39:26;5.60;54.20
15930;DHT22;8064;51.142;4.780;2023-02-28T18:41:52;5.50;54.20
15930;DHT22;8064;51.142;4.780;2023-02-28T18:44:18;5.50;54.30
15930;DHT22;8064;51.142;4.780;2023-02-28T18:46:43;5.50;54.40
15930;DHT22;8064;51.142;4.780;2023-02-28T18:49:12;5.40;54.40
15930;DHT22;8064;51.142;4.780;2023-02-28T18:51:38;5.40;54.60
15930;DHT22;8064;51.142;4.780;2023-02-28T18:54:03;5.30;54.60
15930;DHT22;8064;51.142;4.780;2023-02-28T18:56:29;5.30;54.80